Spottail — V7HQ7 — position and weather

sailwx.info

Track history (hours):
 
Tides and Currents Weather Stations Pressure Air Temp Water Temp Dewpoint Dewpoint Depression Visibility Wind Speed Wind Dir Waves Ship Positions

Spottail

Last reported at 2017-Aug-27 23:57 UTC. Time now 2017-Sep-22 02:46 UTC.
Position N 28°37' E 032°59'.
Warning: this ship's position is 25 days out of date.

Length 228 m; draft 8.1 m.

Type: Tanker. MMSI: 538005860.

Date/timePositionNaut miles runAvg speedWind from/ knotsBaromVisibWave heightAir tempDewpointWater temp
2017-Aug-27 23:57N 28°37' E 032°59'4 8.1
2017-Aug-27 23:30N 28°40' E 032°57'4 8.1
2017-Aug-27 23:00N 28°44' E 032°55'4 8.2
2017-Aug-27 22:30N 28°47' E 032°53'5 8.5
2017-Aug-27 21:52N 28°52' E 032°51'115 8.7
2017-Aug-27 08:33N 30°45' E 032°20'0 7.8
2017-Aug-27 08:29N 30°45' E 032°19'29 8.8
2017-Aug-27 05:12N 31°14' E 032°21'1 7.9
2017-Aug-27 05:00N 31°15' E 032°21'4 7.9
2017-Aug-27 04:30N 31°19' E 032°22'4 8.9
2017-Aug-27 04:00N 31°23' E 032°24'4 2.7
2017-Aug-27 02:35N 31°22' E 032°19'0 0.4
2017-Aug-27 02:20N 31°22' E 032°19'0 0.1
2017-Aug-27 01:59N 31°22' E 032°19'0 0.0
2017-Aug-27 01:29N 31°22' E 032°19'0 0.0
2017-Aug-27 00:59N 31°22' E 032°19'0 0.0
2017-Aug-27 00:14N 31°22' E 032°19'0 0.0
2017-Aug-26 23:56N 31°22' E 032°19'0 0.0
2017-Aug-26 23:29N 31°22' E 032°19'0 0.0
2017-Aug-26 22:50N 31°22' E 032°19'0 0.0
2017-Aug-26 22:26N 31°22' E 032°19'0 0.0
2017-Aug-26 21:56N 31°22' E 032°19'0 0.0
2017-Aug-26 21:29N 31°22' E 032°19'0 0.1
2017-Aug-26 20:59N 31°22' E 032°19'0 0.2
2017-Aug-26 20:29N 31°22' E 032°19'0 0.0
2017-Aug-26 19:53N 31°22' E 032°19'0 0.0
2017-Aug-26 19:29N 31°22' E 032°19'0 0.0
2017-Aug-26 18:08N 31°22' E 032°19'0 0.1
2017-Aug-26 17:59N 31°22' E 032°19'0 0.0
2017-Aug-26 17:29N 31°22' E 032°19'0 0.0
2017-Aug-26 16:50N 31°22' E 032°19'0 0.3
2017-Aug-26 16:26N 31°22' E 032°19'2 4.3
2017-Aug-26 15:53N 31°24' E 032°18'411.9
2017-Aug-26 15:31N 31°28' E 032°15'812.0
2017-Aug-26 14:52N 31°34' E 032°10'1111.9
2017-Aug-26 13:57N 31°42' E 032°01'511.6
2017-Aug-26 13:31N 31°45' E 031°56'611.9
2017-Aug-26 13:00N 31°48' E 031°50'612.3
2017-Aug-26 12:30N 31°50' E 031°44'612.2
2017-Aug-26 12:01N 31°53' E 031°37'612.4
2017-Aug-26 11:30N 31°55' E 031°30'612.5
2017-Aug-26 11:01N 31°58' E 031°23'612.6
2017-Aug-26 10:30N 32°01' E 031°17'2512.9
2017-Aug-26 08:32N 32°09' E 030°49'112.7
2017-Aug-26 08:26N 32°09' E 030°47'612.7
2017-Aug-26 08:00N 32°11' E 030°41'1112.5
2017-Aug-26 07:05N 32°15' E 030°28'112.3
2017-Aug-26 07:00N 32°15' E 030°27'2012.4
2017-Aug-26 05:24N 32°21' E 030°04'712.8
2017-Aug-26 04:50N 32°23' E 029°56'  
2017-Aug-23 06:23N 36°10' E 014°52'411.1
2017-Aug-23 06:00N 36°12' E 014°47'611.0
2017-Aug-23 05:30N 36°14' E 014°40'611.0
2017-Aug-23 04:59N 36°16' E 014°34'510.9
2017-Aug-23 04:30N 36°18' E 014°28'510.9
2017-Aug-23 04:00N 36°20' E 014°22'610.8
2017-Aug-23 03:30N 36°22' E 014°15'510.8
2017-Aug-23 03:00N 36°24' E 014°09'510.8
2017-Aug-23 02:30N 36°26' E 014°03'510.9
2017-Aug-23 02:00N 36°28' E 013°56'510.8
2017-Aug-23 01:30N 36°30' E 013°50'610.8
2017-Aug-23 00:59N 36°32' E 013°44'610.8
2017-Aug-23 00:28N 36°34' E 013°37'510.8
2017-Aug-23 00:00N 36°36' E 013°32'610.9
2017-Aug-22 23:30N 36°38' E 013°25'510.9
2017-Aug-22 23:00N 36°40' E 013°19'510.9
2017-Aug-22 22:30N 36°42' E 013°12'510.9
2017-Aug-22 22:00N 36°44' E 013°06'2910.9
2017-Aug-22 19:18N 36°55' E 012°32'510.9
2017-Aug-22 18:48N 36°57' E 012°26'1210.9
2017-Aug-22 17:42N 37°02' E 012°12'37211.4
2017-Aug-21 08:55N 37°21' E 004°25'513.0
2017-Aug-21 08:30N 37°20' E 004°18'713.2
2017-Aug-21 07:58N 37°20' E 004°09'4112.9
2017-Aug-21 04:49N 37°16' E 003°18'412.7
2017-Aug-21 04:30N 37°15' E 003°13'712.8
2017-Aug-21 03:57N 37°15' E 003°04'3912.5
2017-Aug-21 00:51N 37°07' E 002°17'1412.2
2017-Aug-20 23:42N 37°04' E 001°60'212.3
2017-Aug-20 23:30N 37°03' E 001°57'612.3
2017-Aug-20 23:00N 37°02' E 001°49'612.0
2017-Aug-20 22:30N 37°01' E 001°42'1211.7
2017-Aug-20 21:30N 36°58' E 001°28'1611.1
2017-Aug-20 20:03N 36°54' E 001°08'111.4
2017-Aug-20 19:59N 36°54' E 001°07'811.8
2017-Aug-20 19:17N 36°52' E 000°57'412.5
2017-Aug-20 19:00N 36°51' E 000°53'2412.2
2017-Aug-20 17:01N 36°45' E 000°23'211.9
2017-Aug-20 16:51N 36°45' E 000°21'412.0
2017-Aug-20 16:30N 36°44' E 000°16'612.0
2017-Aug-20 16:00N 36°43' E 000°09'611.9
2017-Aug-20 15:30N 36°41' E 000°01'612.1
2017-Aug-20 15:00N 36°40' W 000°06'2212.4
2017-Aug-20 13:11N 36°34' W 000°33'412.5
2017-Aug-20 12:50N 36°33' W 000°38'11912.5
2017-Aug-20 03:16N 36°13' W 003°04'312.2
2017-Aug-20 02:59N 36°13' W 003°08'612.1
2017-Aug-20 02:27N 36°12' W 003°16'8714.0
2017-Aug-19 20:17N 36°05' W 005°03'413.5
2017-Aug-19 19:59N 36°05' W 005°08'613.8
2017-Aug-19 19:31N 36°05' W 005°16'5 9.9
2017-Aug-19 19:00N 36°06' W 005°22'1 2.5
2017-Aug-19 18:26N 36°08' W 005°22'0 0.4
2017-Aug-19 17:47N 36°07' W 005°22'0 0.0
2017-Aug-19 15:56N 36°07' W 005°22'0 0.0
2017-Aug-19 15:26N 36°07' W 005°22'0 0.0
2017-Aug-19 14:59N 36°07' W 005°22'0 0.0
2017-Aug-19 13:59N 36°07' W 005°22'0 0.1
2017-Aug-19 13:23N 36°07' W 005°22'0 0.0
2017-Aug-19 12:50N 36°07' W 005°22'0 0.1
2017-Aug-19 12:14N 36°07' W 005°22'0 0.3
2017-Aug-19 11:50N 36°07' W 005°22'0 0.0
2017-Aug-19 11:23N 36°07' W 005°22'0 0.1
2017-Aug-19 10:56N 36°07' W 005°22'0 0.1
2017-Aug-19 10:26N 36°07' W 005°22'0 0.1
2017-Aug-19 08:44N 36°07' W 005°22'0 0.1
2017-Aug-19 06:38N 36°07' W 005°22'0 0.2
2017-Aug-19 06:29N 36°07' W 005°22'0 0.3
2017-Aug-19 06:00N 36°07' W 005°22'2 3.6
2017-Aug-19 05:30N 36°05' W 005°22'2 4.9
2017-Aug-19 05:00N 36°03' W 005°23'1 1.8
2017-Aug-19 04:30N 36°02' W 005°24'2 3.6
2017-Aug-19 04:00N 36°01' W 005°24'5 9.8
2017-Aug-19 03:30N 35°57' W 005°29'1412.0
2017-Aug-19 02:21N 35°54' W 005°46'411.7
2017-Aug-19 01:59N 35°54' W 005°51'1411.0
2017-Aug-19 00:44N 35°54' W 006°08'210.6
2017-Aug-19 00:30N 35°54' W 006°11'6110.1
2017-Aug-18 18:26N 36°09' W 007°24'511.2
2017-Aug-18 18:00N 36°11' W 007°30'611.0
2017-Aug-18 17:30N 36°12' W 007°36'611.1
2017-Aug-18 17:00N 36°14' W 007°43'611.1
2017-Aug-18 16:30N 36°15' W 007°50'510.9
2017-Aug-18 16:00N 36°16' W 007°56'510.7
2017-Aug-18 15:30N 36°18' W 008°03'4 8.7
2017-Aug-18 15:00N 36°19' W 008°08'8 7.8
2017-Aug-18 14:00N 36°21' W 008°17'7 8.0
2017-Aug-18 13:05N 36°23' W 008°26'110.7
2017-Aug-18 13:00N 36°23' W 008°27'610.9
2017-Aug-18 12:29N 36°24' W 008°34'610.8
2017-Aug-18 11:54N 36°26' W 008°42'411.0
2017-Aug-18 11:30N 36°27' W 008°47'510.7
2017-Aug-18 11:00N 36°29' W 008°53'4 8.2
2017-Aug-18 10:30N 36°30' W 008°58'4 8.0
2017-Aug-18 10:00N 36°31' W 009°03'4 8.1
2017-Aug-18 09:30N 36°33' W 009°07'4 7.8
2017-Aug-18 09:00N 36°34' W 009°12'5 9.0
2017-Aug-18 08:30N 36°35' W 009°17'510.9
2017-Aug-18 08:00N 36°39' W 009°22'510.9
2017-Aug-18 07:30N 36°43' W 009°27'611.1
2017-Aug-18 07:00N 36°47' W 009°32'611.1
2017-Aug-18 06:30N 36°52' W 009°34'611.4
2017-Aug-18 06:00N 36°58' W 009°36'611.5
2017-Aug-18 05:29N 37°03' W 009°38'611.6
2017-Aug-18 05:00N 37°09' W 009°39'611.3
2017-Aug-18 04:29N 37°15' W 009°41'611.5
2017-Aug-18 03:59N 37°20' W 009°42'511.2
2017-Aug-18 03:30N 37°25' W 009°44'510.6
2017-Aug-18 03:00N 37°31' W 009°45'510.6
2017-Aug-18 02:30N 37°36' W 009°47'510.8
2017-Aug-18 02:00N 37°41' W 009°48'510.8
2017-Aug-18 01:30N 37°46' W 009°50'510.4
2017-Aug-18 01:00N 37°51' W 009°52'4 8.0
2017-Aug-18 00:30N 37°55' W 009°53'4 8.0
2017-Aug-18 00:00N 37°59' W 009°54'  
Track history (hours):
 
Tides and Currents Weather Stations Pressure Air Temp Water Temp Dewpoint Dewpoint Depression Visibility Wind Speed Wind Dir Waves Ship Positions

Spottail

Last reported at 2017-Aug-27 23:57 UTC. Time now 2017-Sep-22 02:46 UTC.
Position N 28°37' E 032°59'.
Warning: this ship's position is 25 days out of date.

Length 228 m; draft 8.1 m.

Type: Tanker. MMSI: 538005860.

Date/timePositionNaut miles runAvg speedWind from/ knotsBaromVisibWave heightAir tempDewpointWater temp
2017-Aug-27 23:57N 28°37' E 032°59'4 8.1
2017-Aug-27 23:30N 28°40' E 032°57'4 8.1
2017-Aug-27 23:00N 28°44' E 032°55'4 8.2
2017-Aug-27 22:30N 28°47' E 032°53'5 8.5
2017-Aug-27 21:52N 28°52' E 032°51'115 8.7
2017-Aug-27 08:33N 30°45' E 032°20'0 7.8
2017-Aug-27 08:29N 30°45' E 032°19'29 8.8
2017-Aug-27 05:12N 31°14' E 032°21'1 7.9
2017-Aug-27 05:00N 31°15' E 032°21'4 7.9
2017-Aug-27 04:30N 31°19' E 032°22'4 8.9
2017-Aug-27 04:00N 31°23' E 032°24'4 2.7
2017-Aug-27 02:35N 31°22' E 032°19'0 0.4
2017-Aug-27 02:20N 31°22' E 032°19'0 0.1
2017-Aug-27 01:59N 31°22' E 032°19'0 0.0
2017-Aug-27 01:29N 31°22' E 032°19'0 0.0
2017-Aug-27 00:59N 31°22' E 032°19'0 0.0
2017-Aug-27 00:14N 31°22' E 032°19'0 0.0
2017-Aug-26 23:56N 31°22' E 032°19'0 0.0
2017-Aug-26 23:29N 31°22' E 032°19'0 0.0
2017-Aug-26 22:50N 31°22' E 032°19'0 0.0
2017-Aug-26 22:26N 31°22' E 032°19'0 0.0
2017-Aug-26 21:56N 31°22' E 032°19'0 0.0
2017-Aug-26 21:29N 31°22' E 032°19'0 0.1
2017-Aug-26 20:59N 31°22' E 032°19'0 0.2
2017-Aug-26 20:29N 31°22' E 032°19'0 0.0
2017-Aug-26 19:53N 31°22' E 032°19'0 0.0
2017-Aug-26 19:29N 31°22' E 032°19'0 0.0
2017-Aug-26 18:08N 31°22' E 032°19'0 0.1
2017-Aug-26 17:59N 31°22' E 032°19'0 0.0
2017-Aug-26 17:29N 31°22' E 032°19'0 0.0
2017-Aug-26 16:50N 31°22' E 032°19'0 0.3
2017-Aug-26 16:26N 31°22' E 032°19'2 4.3
2017-Aug-26 15:53N 31°24' E 032°18'411.9
2017-Aug-26 15:31N 31°28' E 032°15'812.0
2017-Aug-26 14:52N 31°34' E 032°10'1111.9
2017-Aug-26 13:57N 31°42' E 032°01'511.6
2017-Aug-26 13:31N 31°45' E 031°56'611.9
2017-Aug-26 13:00N 31°48' E 031°50'612.3
2017-Aug-26 12:30N 31°50' E 031°44'612.2
2017-Aug-26 12:01N 31°53' E 031°37'612.4
2017-Aug-26 11:30N 31°55' E 031°30'612.5
2017-Aug-26 11:01N 31°58' E 031°23'612.6
2017-Aug-26 10:30N 32°01' E 031°17'2512.9
2017-Aug-26 08:32N 32°09' E 030°49'112.7
2017-Aug-26 08:26N 32°09' E 030°47'612.7
2017-Aug-26 08:00N 32°11' E 030°41'1112.5
2017-Aug-26 07:05N 32°15' E 030°28'112.3
2017-Aug-26 07:00N 32°15' E 030°27'2012.4
2017-Aug-26 05:24N 32°21' E 030°04'712.8
2017-Aug-26 04:50N 32°23' E 029°56'  
2017-Aug-23 06:23N 36°10' E 014°52'411.1
2017-Aug-23 06:00N 36°12' E 014°47'611.0
2017-Aug-23 05:30N 36°14' E 014°40'611.0
2017-Aug-23 04:59N 36°16' E 014°34'510.9
2017-Aug-23 04:30N 36°18' E 014°28'510.9
2017-Aug-23 04:00N 36°20' E 014°22'610.8
2017-Aug-23 03:30N 36°22' E 014°15'510.8
2017-Aug-23 03:00N 36°24' E 014°09'510.8
2017-Aug-23 02:30N 36°26' E 014°03'510.9
2017-Aug-23 02:00N 36°28' E 013°56'510.8
2017-Aug-23 01:30N 36°30' E 013°50'610.8
2017-Aug-23 00:59N 36°32' E 013°44'610.8
2017-Aug-23 00:28N 36°34' E 013°37'510.8
2017-Aug-23 00:00N 36°36' E 013°32'610.9
2017-Aug-22 23:30N 36°38' E 013°25'510.9
2017-Aug-22 23:00N 36°40' E 013°19'510.9
2017-Aug-22 22:30N 36°42' E 013°12'510.9
2017-Aug-22 22:00N 36°44' E 013°06'2910.9
2017-Aug-22 19:18N 36°55' E 012°32'510.9
2017-Aug-22 18:48N 36°57' E 012°26'1210.9
2017-Aug-22 17:42N 37°02' E 012°12'37211.4
2017-Aug-21 08:55N 37°21' E 004°25'513.0
2017-Aug-21 08:30N 37°20' E 004°18'713.2
2017-Aug-21 07:58N 37°20' E 004°09'4112.9
2017-Aug-21 04:49N 37°16' E 003°18'412.7
2017-Aug-21 04:30N 37°15' E 003°13'712.8
2017-Aug-21 03:57N 37°15' E 003°04'3912.5
2017-Aug-21 00:51N 37°07' E 002°17'1412.2
2017-Aug-20 23:42N 37°04' E 001°60'212.3
2017-Aug-20 23:30N 37°03' E 001°57'612.3
2017-Aug-20 23:00N 37°02' E 001°49'612.0
2017-Aug-20 22:30N 37°01' E 001°42'1211.7
2017-Aug-20 21:30N 36°58' E 001°28'1611.1
2017-Aug-20 20:03N 36°54' E 001°08'111.4
2017-Aug-20 19:59N 36°54' E 001°07'811.8
2017-Aug-20 19:17N 36°52' E 000°57'412.5
2017-Aug-20 19:00N 36°51' E 000°53'2412.2
2017-Aug-20 17:01N 36°45' E 000°23'211.9
2017-Aug-20 16:51N 36°45' E 000°21'412.0
2017-Aug-20 16:30N 36°44' E 000°16'612.0
2017-Aug-20 16:00N 36°43' E 000°09'611.9
2017-Aug-20 15:30N 36°41' E 000°01'612.1
2017-Aug-20 15:00N 36°40' W 000°06'2212.4
2017-Aug-20 13:11N 36°34' W 000°33'412.5
2017-Aug-20 12:50N 36°33' W 000°38'11912.5
2017-Aug-20 03:16N 36°13' W 003°04'312.2
2017-Aug-20 02:59N 36°13' W 003°08'612.1
2017-Aug-20 02:27N 36°12' W 003°16'8714.0
2017-Aug-19 20:17N 36°05' W 005°03'413.5
2017-Aug-19 19:59N 36°05' W 005°08'613.8
2017-Aug-19 19:31N 36°05' W 005°16'5 9.9
2017-Aug-19 19:00N 36°06' W 005°22'1 2.5
2017-Aug-19 18:26N 36°08' W 005°22'0 0.4
2017-Aug-19 17:47N 36°07' W 005°22'0 0.0
2017-Aug-19 15:56N 36°07' W 005°22'0 0.0
2017-Aug-19 15:26N 36°07' W 005°22'0 0.0
2017-Aug-19 14:59N 36°07' W 005°22'0 0.0
2017-Aug-19 13:59N 36°07' W 005°22'0 0.1
2017-Aug-19 13:23N 36°07' W 005°22'0 0.0
2017-Aug-19 12:50N 36°07' W 005°22'0 0.1
2017-Aug-19 12:14N 36°07' W 005°22'0 0.3
2017-Aug-19 11:50N 36°07' W 005°22'0 0.0
2017-Aug-19 11:23N 36°07' W 005°22'0 0.1
2017-Aug-19 10:56N 36°07' W 005°22'0 0.1
2017-Aug-19 10:26N 36°07' W 005°22'0 0.1
2017-Aug-19 08:44N 36°07' W 005°22'0 0.1
2017-Aug-19 06:38N 36°07' W 005°22'0 0.2
2017-Aug-19 06:29N 36°07' W 005°22'0 0.3
2017-Aug-19 06:00N 36°07' W 005°22'2 3.6
2017-Aug-19 05:30N 36°05' W 005°22'2 4.9
2017-Aug-19 05:00N 36°03' W 005°23'1 1.8
2017-Aug-19 04:30N 36°02' W 005°24'2 3.6
2017-Aug-19 04:00N 36°01' W 005°24'5 9.8
2017-Aug-19 03:30N 35°57' W 005°29'1412.0
2017-Aug-19 02:21N 35°54' W 005°46'411.7
2017-Aug-19 01:59N 35°54' W 005°51'1411.0
2017-Aug-19 00:44N 35°54' W 006°08'210.6
2017-Aug-19 00:30N 35°54' W 006°11'6110.1
2017-Aug-18 18:26N 36°09' W 007°24'511.2
2017-Aug-18 18:00N 36°11' W 007°30'611.0
2017-Aug-18 17:30N 36°12' W 007°36'611.1
2017-Aug-18 17:00N 36°14' W 007°43'611.1
2017-Aug-18 16:30N 36°15' W 007°50'510.9
2017-Aug-18 16:00N 36°16' W 007°56'510.7
2017-Aug-18 15:30N 36°18' W 008°03'4 8.7
2017-Aug-18 15:00N 36°19' W 008°08'8 7.8
2017-Aug-18 14:00N 36°21' W 008°17'7 8.0
2017-Aug-18 13:05N 36°23' W 008°26'110.7
2017-Aug-18 13:00N 36°23' W 008°27'610.9
2017-Aug-18 12:29N 36°24' W 008°34'610.8
2017-Aug-18 11:54N 36°26' W 008°42'411.0
2017-Aug-18 11:30N 36°27' W 008°47'510.7
2017-Aug-18 11:00N 36°29' W 008°53'4 8.2
2017-Aug-18 10:30N 36°30' W 008°58'4 8.0
2017-Aug-18 10:00N 36°31' W 009°03'4 8.1
2017-Aug-18 09:30N 36°33' W 009°07'4 7.8
2017-Aug-18 09:00N 36°34' W 009°12'5 9.0
2017-Aug-18 08:30N 36°35' W 009°17'510.9
2017-Aug-18 08:00N 36°39' W 009°22'510.9
2017-Aug-18 07:30N 36°43' W 009°27'611.1
2017-Aug-18 07:00N 36°47' W 009°32'611.1
2017-Aug-18 06:30N 36°52' W 009°34'611.4
2017-Aug-18 06:00N 36°58' W 009°36'611.5
2017-Aug-18 05:29N 37°03' W 009°38'611.6
2017-Aug-18 05:00N 37°09' W 009°39'611.3
2017-Aug-18 04:29N 37°15' W 009°41'611.5
2017-Aug-18 03:59N 37°20' W 009°42'511.2
2017-Aug-18 03:30N 37°25' W 009°44'510.6
2017-Aug-18 03:00N 37°31' W 009°45'510.6
2017-Aug-18 02:30N 37°36' W 009°47'510.8
2017-Aug-18 02:00N 37°41' W 009°48'510.8
2017-Aug-18 01:30N 37°46' W 009°50'510.4
2017-Aug-18 01:00N 37°51' W 009°52'4 8.0
2017-Aug-18 00:30N 37°55' W 009°53'4 8.0
2017-Aug-18 00:00N 37°59' W 009°54'  

Dump ship's entire track history